sensor_id;sensor_type;location;lat;lon;timestamp;temperature;humidity
20654;DHT22;21083;50.898;4.902;2023-07-31T00:01:48;17.60;99.90
20654;DHT22;21083;50.898;4.902;2023-07-31T00:04:15;17.70;99.90
20654;DHT22;21083;50.898;4.902;2023-07-31T00:06:42;17.70;99.90
20654;DHT22;21083;50.898;4.902;2023-07-31T00:09:10;17.70;99.90
20654;DHT22;21083;50.898;4.902;2023-07-31T00:11:37;17.70;99.90
20654;DHT22;21083;50.898;4.902;2023-07-31T00:14:04;17.70;99.90
20654;DHT22;21083;50.898;4.902;2023-07-31T00:16:31;17.70;99.90
20654;DHT22;21083;50.898;4.902;2023-07-31T00:18:58;17.70;99.90
20654;DHT22;21083;50.898;4.902;2023-07-31T00:21:25;17.70;99.90
20654;DHT22;21083;50.898;4.902;2023-07-31T00:23:51;17.60;99.90
20654;DHT22;21083;50.898;4.902;2023-07-31T00:26:20;17.80;99.90
20654;DHT22;21083;50.898;4.902;2023-07-31T00:28:47;17.80;99.90
20654;DHT22;21083;50.898;4.902;2023-07-31T00:31:13;17.60;99.90
20654;DHT22;21083;50.898;4.902;2023-07-31T00:33:40;17.60;99.90
20654;DHT22;21083;50.898;4.902;2023-07-31T00:36:07;17.70;99.90
20654;DHT22;21083;50.898;4.902;2023-07-31T00:38:34;17.60;99.90
20654;DHT22;21083;50.898;4.902;2023-07-31T00:41:01;17.60;99.90
20654;DHT22;21083;50.898;4.902;2023-07-31T00:43:29;17.70;99.90
20654;DHT22;21083;50.898;4.902;2023-07-31T00:45:56;17.70;99.90
20654;DHT22;21083;50.898;4.902;2023-07-31T00:48:23;17.70;99.90
20654;DHT22;21083;50.898;4.902;2023-07-31T00:50:50;17.70;99.90
20654;DHT22;21083;50.898;4.902;2023-07-31T00:53:17;17.70;99.90
20654;DHT22;21083;50.898;4.902;2023-07-31T00:55:44;17.70;99.90
20654;DHT22;21083;50.898;4.902;2023-07-31T00:58:11;17.70;99.90
20654;DHT22;21083;50.898;4.902;2023-07-31T01:00:40;17.80;99.90
20654;DHT22;21083;50.898;4.902;2023-07-31T01:03:07;17.90;99.90
20654;DHT22;21083;50.898;4.902;2023-07-31T01:05:39;18.00;99.90
20654;DHT22;21083;50.898;4.902;2023-07-31T01:08:18;18.00;99.90
20654;DHT22;21083;50.898;4.902;2023-07-31T01:10:50;18.00;99.90
20654;DHT22;21083;50.898;4.902;2023-07-31T01:13:18;18.00;99.90
20654;DHT22;21083;50.898;4.902;2023-07-31T01:15:47;18.10;99.90
20654;DHT22;21083;50.898;4.902;2023-07-31T01:18:14;18.10;99.90
20654;DHT22;21083;50.898;4.902;2023-07-31T01:20:42;18.00;99.90
20654;DHT22;21083;50.898;4.902;2023-07-31T01:23:51;18.00;99.90
20654;DHT22;21083;50.898;4.902;2023-07-31T01:26:21;18.00;99.90
20654;DHT22;21083;50.898;4.902;2023-07-31T01:28:55;18.00;99.90
20654;DHT22;21083;50.898;4.902;2023-07-31T01:31:24;18.10;99.90
20654;DHT22;21083;50.898;4.902;2023-07-31T01:33:53;18.10;99.90
20654;DHT22;21083;50.898;4.902;2023-07-31T01:36:21;18.10;99.90
20654;DHT22;21083;50.898;4.902;2023-07-31T01:38:48;18.10;99.90
20654;DHT22;21083;50.898;4.902;2023-07-31T01:41:17;18.10;99.90
20654;DHT22;21083;50.898;4.902;2023-07-31T01:43:45;18.00;99.90
20654;DHT22;21083;50.898;4.902;2023-07-31T01:46:12;18.10;99.90
20654;DHT22;21083;50.898;4.902;2023-07-31T01:48:39;18.20;99.90
20654;DHT22;21083;50.898;4.902;2023-07-31T01:51:06;18.10;99.90
20654;DHT22;21083;50.898;4.902;2023-07-31T01:53:33;18.10;99.90
20654;DHT22;21083;50.898;4.902;2023-07-31T01:56:00;18.00;99.90
20654;DHT22;21083;50.898;4.902;2023-07-31T01:58:27;18.10;99.90
20654;DHT22;21083;50.898;4.902;2023-07-31T02:00:55;18.00;99.90
20654;DHT22;21083;50.898;4.902;2023-07-31T02:03:22;17.90;99.90
20654;DHT22;21083;50.898;4.902;2023-07-31T02:05:49;17.90;99.90
20654;DHT22;21083;50.898;4.902;2023-07-31T02:08:16;18.00;99.90
20654;DHT22;21083;50.898;4.902;2023-07-31T02:10:43;18.00;99.90
20654;DHT22;21083;50.898;4.902;2023-07-31T02:13:10;18.00;99.90
20654;DHT22;21083;50.898;4.902;2023-07-31T02:15:37;18.00;99.90
20654;DHT22;21083;50.898;4.902;2023-07-31T02:18:05;18.10;99.90
20654;DHT22;21083;50.898;4.902;2023-07-31T02:20:34;18.10;99.90
20654;DHT22;21083;50.898;4.902;2023-07-31T02:23:01;18.10;99.90
20654;DHT22;21083;50.898;4.902;2023-07-31T02:25:28;18.00;99.90
20654;DHT22;21083;50.898;4.902;2023-07-31T02:27:54;18.00;99.90
20654;DHT22;21083;50.898;4.902;2023-07-31T02:30:21;18.10;99.90
20654;DHT22;21083;50.898;4.902;2023-07-31T02:32:48;18.20;99.90
20654;DHT22;21083;50.898;4.902;2023-07-31T02:35:17;18.10;99.90
20654;DHT22;21083;50.898;4.902;2023-07-31T02:37:44;18.10;99.90
20654;DHT22;21083;50.898;4.902;2023-07-31T02:40:11;18.10;99.90
20654;DHT22;21083;50.898;4.902;2023-07-31T02:42:38;18.10;99.90
20654;DHT22;21083;50.898;4.902;2023-07-31T02:45:06;18.10;99.90
20654;DHT22;21083;50.898;4.902;2023-07-31T02:47:34;18.10;99.90
20654;DHT22;21083;50.898;4.902;2023-07-31T02:50:01;18.00;99.90
20654;DHT22;21083;50.898;4.902;2023-07-31T02:52:29;18.10;99.90
20654;DHT22;21083;50.898;4.902;2023-07-31T02:54:56;18.10;99.90
20654;DHT22;21083;50.898;4.902;2023-07-31T02:57:23;18.00;99.90
20654;DHT22;21083;50.898;4.902;2023-07-31T02:59:50;18.10;99.90
20654;DHT22;21083;50.898;4.902;2023-07-31T03:02:17;18.10;99.90
20654;DHT22;21083;50.898;4.902;2023-07-31T03:04:44;18.10;99.90
20654;DHT22;21083;50.898;4.902;2023-07-31T03:07:11;18.10;99.90
20654;DHT22;21083;50.898;4.902;2023-07-31T03:09:39;18.20;99.90
20654;DHT22;21083;50.898;4.902;2023-07-31T03:12:07;18.30;99.90
20654;DHT22;21083;50.898;4.902;2023-07-31T03:14:35;18.30;99.90
20654;DHT22;21083;50.898;4.902;2023-07-31T03:17:02;18.20;99.90
20654;DHT22;21083;50.898;4.902;2023-07-31T03:19:30;18.20;99.90
20654;DHT22;21083;50.898;4.902;2023-07-31T03:21:58;18.00;99.90
20654;DHT22;21083;50.898;4.902;2023-07-31T03:24:25;18.00;99.90
20654;DHT22;21083;50.898;4.902;2023-07-31T03:26:53;18.00;99.90
20654;DHT22;21083;50.898;4.902;2023-07-31T03:29:20;18.00;99.90
20654;DHT22;21083;50.898;4.902;2023-07-31T03:31:47;18.00;99.90
20654;DHT22;21083;50.898;4.902;2023-07-31T03:34:14;17.90;99.90
20654;DHT22;21083;50.898;4.902;2023-07-31T03:36:41;17.90;99.90
20654;DHT22;21083;50.898;4.902;2023-07-31T03:39:08;18.00;99.90
20654;DHT22;21083;50.898;4.902;2023-07-31T03:41:35;18.10;99.90
20654;DHT22;21083;50.898;4.902;2023-07-31T03:44:03;18.20;99.90
20654;DHT22;21083;50.898;4.902;2023-07-31T03:46:30;18.10;99.90
20654;DHT22;21083;50.898;4.902;2023-07-31T03:48:57;18.00;99.90
20654;DHT22;21083;50.898;4.902;2023-07-31T03:51:24;18.00;99.90
20654;DHT22;21083;50.898;4.902;2023-07-31T03:53:51;18.10;99.90
20654;DHT22;21083;50.898;4.902;2023-07-31T03:56:18;18.10;99.90
20654;DHT22;21083;50.898;4.902;2023-07-31T03:58:45;18.10;99.90
20654;DHT22;21083;50.898;4.902;2023-07-31T04:01:13;18.00;99.90
20654;DHT22;21083;50.898;4.902;2023-07-31T04:03:40;18.10;99.90
20654;DHT22;21083;50.898;4.902;2023-07-31T04:06:07;18.10;99.90
20654;DHT22;21083;50.898;4.902;2023-07-31T04:08:34;18.10;99.90
20654;DHT22;21083;50.898;4.902;2023-07-31T04:11:01;18.10;99.90
20654;DHT22;21083;50.898;4.902;2023-07-31T04:13:29;18.00;99.90
20654;DHT22;21083;50.898;4.902;2023-07-31T04:15:56;18.10;99.90
20654;DHT22;21083;50.898;4.902;2023-07-31T04:18:26;18.00;99.90
20654;DHT22;21083;50.898;4.902;2023-07-31T04:20:53;18.00;99.90
20654;DHT22;21083;50.898;4.902;2023-07-31T04:23:20;18.00;99.90
20654;DHT22;21083;50.898;4.902;2023-07-31T04:25:47;18.00;99.90
20654;DHT22;21083;50.898;4.902;2023-07-31T04:28:14;18.00;99.90
20654;DHT22;21083;50.898;4.902;2023-07-31T04:30:41;17.90;99.90
20654;DHT22;21083;50.898;4.902;2023-07-31T04:33:08;17.90;99.90
20654;DHT22;21083;50.898;4.902;2023-07-31T04:35:36;17.80;99.90
20654;DHT22;21083;50.898;4.902;2023-07-31T04:38:03;17.80;99.90
20654;DHT22;21083;50.898;4.902;2023-07-31T04:40:30;17.90;99.90
20654;DHT22;21083;50.898;4.902;2023-07-31T04:42:57;17.90;99.90
20654;DHT22;21083;50.898;4.902;2023-07-31T04:45:24;17.80;99.90
20654;DHT22;21083;50.898;4.902;2023-07-31T04:47:51;17.90;99.90
20654;DHT22;21083;50.898;4.902;2023-07-31T04:50:18;17.90;99.90
20654;DHT22;21083;50.898;4.902;2023-07-31T04:52:47;17.70;99.90
20654;DHT22;21083;50.898;4.902;2023-07-31T04:55:14;17.70;99.90
20654;DHT22;21083;50.898;4.902;2023-07-31T04:57:41;17.60;99.90
20654;DHT22;21083;50.898;4.902;2023-07-31T05:00:08;17.70;99.90
20654;DHT22;21083;50.898;4.902;2023-07-31T05:02:35;17.70;99.90
20654;DHT22;21083;50.898;4.902;2023-07-31T05:05:03;17.70;99.90
20654;DHT22;21083;50.898;4.902;2023-07-31T05:07:30;17.70;99.90
20654;DHT22;21083;50.898;4.902;2023-07-31T05:09:58;17.80;99.90
20654;DHT22;21083;50.898;4.902;2023-07-31T05:12:25;17.80;99.90
20654;DHT22;21083;50.898;4.902;2023-07-31T05:14:52;17.70;99.90
20654;DHT22;21083;50.898;4.902;2023-07-31T05:17:19;17.80;99.90
20654;DHT22;21083;50.898;4.902;2023-07-31T05:19:46;17.70;99.90
20654;DHT22;21083;50.898;4.902;2023-07-31T05:22:13;17.70;99.90
20654;DHT22;21083;50.898;4.902;2023-07-31T05:24:40;17.80;99.90
20654;DHT22;21083;50.898;4.902;2023-07-31T05:27:08;17.90;99.90
20654;DHT22;21083;50.898;4.902;2023-07-31T05:29:36;17.80;99.90
20654;DHT22;21083;50.898;4.902;2023-07-31T05:32:04;17.80;99.90
20654;DHT22;21083;50.898;4.902;2023-07-31T05:34:31;17.80;99.90
20654;DHT22;21083;50.898;4.902;2023-07-31T05:36:58;17.70;99.90
20654;DHT22;21083;50.898;4.902;2023-07-31T05:39:25;17.70;99.90
20654;DHT22;21083;50.898;4.902;2023-07-31T05:41:52;17.70;99.90
20654;DHT22;21083;50.898;4.902;2023-07-31T05:44:20;17.70;99.90
20654;DHT22;21083;50.898;4.902;2023-07-31T05:46:47;17.60;99.90
20654;DHT22;21083;50.898;4.902;2023-07-31T05:49:14;17.50;99.90
20654;DHT22;21083;50.898;4.902;2023-07-31T05:51:41;17.50;99.90
20654;DHT22;21083;50.898;4.902;2023-07-31T05:54:08;17.40;99.90
20654;DHT22;21083;50.898;4.902;2023-07-31T05:56:35;17.40;99.90
20654;DHT22;21083;50.898;4.902;2023-07-31T05:59:02;17.60;99.90
20654;DHT22;21083;50.898;4.902;2023-07-31T06:01:30;17.60;99.90
20654;DHT22;21083;50.898;4.902;2023-07-31T06:03:57;17.60;99.90
20654;DHT22;21083;50.898;4.902;2023-07-31T06:06:24;17.40;99.90
20654;DHT22;21083;50.898;4.902;2023-07-31T06:08:51;17.40;99.90
20654;DHT22;21083;50.898;4.902;2023-07-31T06:11:19;17.40;99.90
20654;DHT22;21083;50.898;4.902;2023-07-31T06:13:46;17.40;99.90
20654;DHT22;21083;50.898;4.902;2023-07-31T06:16:15;17.30;99.90
20654;DHT22;21083;50.898;4.902;2023-07-31T06:18:44;17.30;99.90
20654;DHT22;21083;50.898;4.902;2023-07-31T06:21:11;17.30;99.90
20654;DHT22;21083;50.898;4.902;2023-07-31T06:23:37;17.20;99.90
20654;DHT22;21083;50.898;4.902;2023-07-31T06:26:04;17.20;99.90
20654;DHT22;21083;50.898;4.902;2023-07-31T06:28:32;17.20;99.90
20654;DHT22;21083;50.898;4.902;2023-07-31T06:30:59;17.20;99.90
20654;DHT22;21083;50.898;4.902;2023-07-31T06:33:26;17.30;99.90
20654;DHT22;21083;50.898;4.902;2023-07-31T06:35:54;17.30;99.90
20654;DHT22;21083;50.898;4.902;2023-07-31T06:38:23;17.20;99.90
20654;DHT22;21083;50.898;4.902;2023-07-31T06:40:51;17.10;99.90
20654;DHT22;21083;50.898;4.902;2023-07-31T06:43:18;17.20;99.90
20654;DHT22;21083;50.898;4.902;2023-07-31T06:45:45;17.20;99.90
20654;DHT22;21083;50.898;4.902;2023-07-31T06:48:14;17.20;99.90
20654;DHT22;21083;50.898;4.902;2023-07-31T06:50:41;17.30;99.90
20654;DHT22;21083;50.898;4.902;2023-07-31T06:53:09;17.30;99.90
20654;DHT22;21083;50.898;4.902;2023-07-31T06:55:36;17.40;99.90
20654;DHT22;21083;50.898;4.902;2023-07-31T06:58:03;17.40;99.90
20654;DHT22;21083;50.898;4.902;2023-07-31T07:00:30;17.50;99.90
20654;DHT22;21083;50.898;4.902;2023-07-31T07:02:57;17.40;99.90
20654;DHT22;21083;50.898;4.902;2023-07-31T07:05:24;17.40;99.90
20654;DHT22;21083;50.898;4.902;2023-07-31T07:07:51;17.50;99.90
20654;DHT22;21083;50.898;4.902;2023-07-31T07:10:20;17.50;99.90
20654;DHT22;21083;50.898;4.902;2023-07-31T07:12:48;17.50;99.90
20654;DHT22;21083;50.898;4.902;2023-07-31T07:15:15;17.60;99.90
20654;DHT22;21083;50.898;4.902;2023-07-31T07:17:42;17.60;99.90
20654;DHT22;21083;50.898;4.902;2023-07-31T07:20:09;17.60;99.90
20654;DHT22;21083;50.898;4.902;2023-07-31T07:22:36;17.60;99.90
20654;DHT22;21083;50.898;4.902;2023-07-31T07:25:04;17.60;99.90
20654;DHT22;21083;50.898;4.902;2023-07-31T07:27:34;17.70;99.90
20654;DHT22;21083;50.898;4.902;2023-07-31T07:30:01;17.60;99.90
20654;DHT22;21083;50.898;4.902;2023-07-31T07:32:29;17.80;99.90
20654;DHT22;21083;50.898;4.902;2023-07-31T07:34:56;17.80;99.90
20654;DHT22;21083;50.898;4.902;2023-07-31T07:37:23;17.80;99.90
20654;DHT22;21083;50.898;4.902;2023-07-31T07:39:50;17.80;99.90
20654;DHT22;21083;50.898;4.902;2023-07-31T07:42:17;17.90;99.90
20654;DHT22;21083;50.898;4.902;2023-07-31T07:44:46;18.00;99.90
20654;DHT22;21083;50.898;4.902;2023-07-31T07:47:13;18.00;99.90
20654;DHT22;21083;50.898;4.902;2023-07-31T07:49:40;18.00;99.90
20654;DHT22;21083;50.898;4.902;2023-07-31T07:52:07;18.00;99.90
20654;DHT22;21083;50.898;4.902;2023-07-31T07:54:34;17.90;99.90
20654;DHT22;21083;50.898;4.902;2023-07-31T07:57:01;17.90;99.90
20654;DHT22;21083;50.898;4.902;2023-07-31T07:59:28;17.90;99.90
20654;DHT22;21083;50.898;4.902;2023-07-31T08:01:57;17.80;99.90
20654;DHT22;21083;50.898;4.902;2023-07-31T08:04:24;17.90;99.90
20654;DHT22;21083;50.898;4.902;2023-07-31T08:06:51;17.90;99.90
20654;DHT22;21083;50.898;4.902;2023-07-31T08:09:18;17.90;99.90
20654;DHT22;21083;50.898;4.902;2023-07-31T08:11:45;18.00;99.90
20654;DHT22;21083;50.898;4.902;2023-07-31T08:14:12;18.00;99.90
20654;DHT22;21083;50.898;4.902;2023-07-31T08:16:40;18.10;99.90
20654;DHT22;21083;50.898;4.902;2023-07-31T08:19:08;18.00;99.90
20654;DHT22;21083;50.898;4.902;2023-07-31T08:21:35;18.00;99.90
20654;DHT22;21083;50.898;4.902;2023-07-31T08:24:02;18.00;99.90
20654;DHT22;21083;50.898;4.902;2023-07-31T08:26:29;18.00;99.90
20654;DHT22;21083;50.898;4.902;2023-07-31T08:28:56;18.10;99.90
20654;DHT22;21083;50.898;4.902;2023-07-31T08:31:24;18.10;99.90
20654;DHT22;21083;50.898;4.902;2023-07-31T08:33:52;18.20;99.90
20654;DHT22;21083;50.898;4.902;2023-07-31T08:36:20;18.20;99.90
20654;DHT22;21083;50.898;4.902;2023-07-31T08:38:48;18.20;99.90
20654;DHT22;21083;50.898;4.902;2023-07-31T08:41:15;18.30;99.90
20654;DHT22;21083;50.898;4.902;2023-07-31T08:43:44;18.20;99.90
20654;DHT22;21083;50.898;4.902;2023-07-31T08:46:12;18.10;99.90
20654;DHT22;21083;50.898;4.902;2023-07-31T08:48:41;18.10;99.90
20654;DHT22;21083;50.898;4.902;2023-07-31T08:51:09;18.10;99.90
20654;DHT22;21083;50.898;4.902;2023-07-31T08:53:38;18.10;99.90
20654;DHT22;21083;50.898;4.902;2023-07-31T08:56:05;18.10;99.90
20654;DHT22;21083;50.898;4.902;2023-07-31T08:58:35;18.20;99.90
20654;DHT22;21083;50.898;4.902;2023-07-31T09:01:04;18.20;99.90
20654;DHT22;21083;50.898;4.902;2023-07-31T09:03:34;18.20;99.90
20654;DHT22;21083;50.898;4.902;2023-07-31T09:06:02;18.20;99.90
20654;DHT22;21083;50.898;4.902;2023-07-31T09:08:32;18.20;99.90
20654;DHT22;21083;50.898;4.902;2023-07-31T09:11:01;18.20;99.90
20654;DHT22;21083;50.898;4.902;2023-07-31T09:13:30;18.20;99.90
20654;DHT22;21083;50.898;4.902;2023-07-31T09:15:57;18.10;99.90
20654;DHT22;21083;50.898;4.902;2023-07-31T09:18:24;18.10;99.90
20654;DHT22;21083;50.898;4.902;2023-07-31T09:21:01;18.10;99.90
20654;DHT22;21083;50.898;4.902;2023-07-31T09:23:41;18.10;99.90
20654;DHT22;21083;50.898;4.902;2023-07-31T09:26:10;18.00;99.90
20654;DHT22;21083;50.898;4.902;2023-07-31T09:28:37;18.10;99.90
20654;DHT22;21083;50.898;4.902;2023-07-31T09:31:04;18.10;99.90
20654;DHT22;21083;50.898;4.902;2023-07-31T09:33:31;18.10;99.90
20654;DHT22;21083;50.898;4.902;2023-07-31T09:35:59;18.10;99.90
20654;DHT22;21083;50.898;4.902;2023-07-31T09:38:27;18.30;99.90
20654;DHT22;21083;50.898;4.902;2023-07-31T09:40:54;18.30;99.90
20654;DHT22;21083;50.898;4.902;2023-07-31T09:43:23;18.20;99.90
20654;DHT22;21083;50.898;4.902;2023-07-31T09:45:55;18.10;99.90
20654;DHT22;21083;50.898;4.902;2023-07-31T09:48:23;18.20;99.90
20654;DHT22;21083;50.898;4.902;2023-07-31T09:50:53;18.30;99.90
20654;DHT22;21083;50.898;4.902;2023-07-31T09:53:28;18.40;99.90
20654;DHT22;21083;50.898;4.902;2023-07-31T09:55:58;18.50;99.90
20654;DHT22;21083;50.898;4.902;2023-07-31T09:58:29;18.70;99.90
20654;DHT22;21083;50.898;4.902;2023-07-31T10:00:57;18.70;99.90
20654;DHT22;21083;50.898;4.902;2023-07-31T10:03:26;18.90;99.90
20654;DHT22;21083;50.898;4.902;2023-07-31T10:05:55;19.10;99.90
20654;DHT22;21083;50.898;4.902;2023-07-31T10:08:27;19.30;99.90
20654;DHT22;21083;50.898;4.902;2023-07-31T10:10:59;19.20;99.90
20654;DHT22;21083;50.898;4.902;2023-07-31T10:13:28;19.20;99.90
20654;DHT22;21083;50.898;4.902;2023-07-31T10:15:59;19.20;99.90
20654;DHT22;21083;50.898;4.902;2023-07-31T10:18:26;19.10;99.90
20654;DHT22;21083;50.898;4.902;2023-07-31T10:20:54;19.10;99.90
20654;DHT22;21083;50.898;4.902;2023-07-31T10:23:22;19.00;99.90
20654;DHT22;21083;50.898;4.902;2023-07-31T10:25:53;19.00;99.90
20654;DHT22;21083;50.898;4.902;2023-07-31T10:28:20;19.00;99.90
20654;DHT22;21083;50.898;4.902;2023-07-31T10:30:49;19.10;99.90
20654;DHT22;21083;50.898;4.902;2023-07-31T10:33:17;19.10;99.90
20654;DHT22;21083;50.898;4.902;2023-07-31T10:35:47;19.10;99.90
20654;DHT22;21083;50.898;4.902;2023-07-31T10:38:14;19.10;99.90
20654;DHT22;21083;50.898;4.902;2023-07-31T10:40:41;19.10;99.90
20654;DHT22;21083;50.898;4.902;2023-07-31T10:43:08;19.20;99.90
20654;DHT22;21083;50.898;4.902;2023-07-31T10:45:38;19.30;99.90
20654;DHT22;21083;50.898;4.902;2023-07-31T10:48:12;19.30;99.90
20654;DHT22;21083;50.898;4.902;2023-07-31T10:50:47;19.30;99.90
20654;DHT22;21083;50.898;4.902;2023-07-31T10:53:23;19.50;99.90
20654;DHT22;21083;50.898;4.902;2023-07-31T10:55:50;19.60;99.90
20654;DHT22;21083;50.898;4.902;2023-07-31T10:58:19;19.80;99.90
20654;DHT22;21083;50.898;4.902;2023-07-31T11:00:46;19.80;99.90
20654;DHT22;21083;50.898;4.902;2023-07-31T11:03:16;19.80;99.90
20654;DHT22;21083;50.898;4.902;2023-07-31T11:05:50;19.70;99.90
20654;DHT22;21083;50.898;4.902;2023-07-31T11:08:20;19.50;99.90
20654;DHT22;21083;50.898;4.902;2023-07-31T11:10:49;19.50;99.90
20654;DHT22;21083;50.898;4.902;2023-07-31T11:13:17;19.50;99.90
20654;DHT22;21083;50.898;4.902;2023-07-31T11:15:44;19.60;99.90
20654;DHT22;21083;50.898;4.902;2023-07-31T11:18:11;19.70;99.90
20654;DHT22;21083;50.898;4.902;2023-07-31T11:20:40;19.70;99.90
20654;DHT22;21083;50.898;4.902;2023-07-31T11:23:08;19.80;99.90
20654;DHT22;21083;50.898;4.902;2023-07-31T11:25:36;20.00;99.90
20654;DHT22;21083;50.898;4.902;2023-07-31T11:28:04;19.90;99.90
20654;DHT22;21083;50.898;4.902;2023-07-31T11:30:32;20.00;99.90
20654;DHT22;21083;50.898;4.902;2023-07-31T11:33:01;20.10;99.90
20654;DHT22;21083;50.898;4.902;2023-07-31T11:35:29;20.20;99.90
20654;DHT22;21083;50.898;4.902;2023-07-31T11:37:59;20.20;99.90
20654;DHT22;21083;50.898;4.902;2023-07-31T11:40:27;20.20;99.90
20654;DHT22;21083;50.898;4.902;2023-07-31T11:42:56;20.30;99.90
20654;DHT22;21083;50.898;4.902;2023-07-31T11:45:25;20.20;99.90
20654;DHT22;21083;50.898;4.902;2023-07-31T11:47:54;20.40;99.90
20654;DHT22;21083;50.898;4.902;2023-07-31T11:50:22;20.50;99.90
20654;DHT22;21083;50.898;4.902;2023-07-31T11:52:53;20.60;99.90
20654;DHT22;21083;50.898;4.902;2023-07-31T11:55:24;20.80;99.90
20654;DHT22;21083;50.898;4.902;2023-07-31T11:57:52;20.70;99.90
20654;DHT22;21083;50.898;4.902;2023-07-31T12:00:20;20.60;99.90
20654;DHT22;21083;50.898;4.902;2023-07-31T12:02:48;20.60;99.90
20654;DHT22;21083;50.898;4.902;2023-07-31T12:05:15;20.50;99.90
20654;DHT22;21083;50.898;4.902;2023-07-31T12:07:50;20.40;99.90
20654;DHT22;21083;50.898;4.902;2023-07-31T12:10:29;20.30;99.90
20654;DHT22;21083;50.898;4.902;2023-07-31T12:12:58;20.30;99.90
20654;DHT22;21083;50.898;4.902;2023-07-31T12:15:29;20.30;99.90
20654;DHT22;21083;50.898;4.902;2023-07-31T12:17:57;20.40;99.90
20654;DHT22;21083;50.898;4.902;2023-07-31T12:20:24;20.40;99.90
20654;DHT22;21083;50.898;4.902;2023-07-31T12:22:52;20.50;99.90
20654;DHT22;21083;50.898;4.902;2023-07-31T12:25:19;20.60;99.90
20654;DHT22;21083;50.898;4.902;2023-07-31T12:27:47;20.80;99.90
20654;DHT22;21083;50.898;4.902;2023-07-31T12:30:29;20.80;99.90
20654;DHT22;21083;50.898;4.902;2023-07-31T12:33:03;20.90;99.90
20654;DHT22;21083;50.898;4.902;2023-07-31T12:35:35;21.20;99.90
20654;DHT22;21083;50.898;4.902;2023-07-31T12:38:02;21.40;99.90
20654;DHT22;21083;50.898;4.902;2023-07-31T12:40:30;21.30;99.90
20654;DHT22;21083;50.898;4.902;2023-07-31T12:43:00;21.10;99.90
20654;DHT22;21083;50.898;4.902;2023-07-31T12:45:27;20.80;99.90
20654;DHT22;21083;50.898;4.902;2023-07-31T12:47:54;20.80;99.90
20654;DHT22;21083;50.898;4.902;2023-07-31T12:50:21;20.80;99.90
20654;DHT22;21083;50.898;4.902;2023-07-31T12:52:49;20.80;99.90
20654;DHT22;21083;50.898;4.902;2023-07-31T12:55:16;20.80;99.90
20654;DHT22;21083;50.898;4.902;2023-07-31T12:57:44;20.80;99.90
20654;DHT22;21083;50.898;4.902;2023-07-31T13:00:13;20.80;99.90
20654;DHT22;21083;50.898;4.902;2023-07-31T13:02:40;20.80;99.90
20654;DHT22;21083;50.898;4.902;2023-07-31T13:05:08;20.80;99.90
20654;DHT22;21083;50.898;4.902;2023-07-31T13:07:35;20.80;99.90
20654;DHT22;21083;50.898;4.902;2023-07-31T13:10:02;20.80;99.90
20654;DHT22;21083;50.898;4.902;2023-07-31T13:12:29;20.70;99.90
20654;DHT22;21083;50.898;4.902;2023-07-31T13:14:56;20.80;99.90
20654;DHT22;21083;50.898;4.902;2023-07-31T13:17:24;21.10;99.90
20654;DHT22;21083;50.898;4.902;2023-07-31T13:19:52;21.00;99.90
20654;DHT22;21083;50.898;4.902;2023-07-31T13:22:19;20.70;99.90
20654;DHT22;21083;50.898;4.902;2023-07-31T13:24:46;20.60;99.90
20654;DHT22;21083;50.898;4.902;2023-07-31T13:27:13;20.70;99.90
20654;DHT22;21083;50.898;4.902;2023-07-31T13:29:42;20.60;99.90
20654;DHT22;21083;50.898;4.902;2023-07-31T13:32:10;20.60;99.90
20654;DHT22;21083;50.898;4.902;2023-07-31T13:34:38;20.50;99.90
20654;DHT22;21083;50.898;4.902;2023-07-31T13:37:05;20.50;99.90
20654;DHT22;21083;50.898;4.902;2023-07-31T13:39:32;20.50;99.90
20654;DHT22;21083;50.898;4.902;2023-07-31T13:42:00;20.40;99.90
20654;DHT22;21083;50.898;4.902;2023-07-31T13:44:27;20.50;99.90
20654;DHT22;21083;50.898;4.902;2023-07-31T13:46:54;20.40;99.90
20654;DHT22;21083;50.898;4.902;2023-07-31T13:49:21;20.40;99.90
20654;DHT22;21083;50.898;4.902;2023-07-31T13:51:49;20.20;99.90
20654;DHT22;21083;50.898;4.902;2023-07-31T13:54:16;20.20;99.90
20654;DHT22;21083;50.898;4.902;2023-07-31T13:56:44;20.30;99.90
20654;DHT22;21083;50.898;4.902;2023-07-31T13:59:11;20.20;99.90
20654;DHT22;21083;50.898;4.902;2023-07-31T14:01:39;20.10;99.90
20654;DHT22;21083;50.898;4.902;2023-07-31T14:04:06;20.10;99.90
20654;DHT22;21083;50.898;4.902;2023-07-31T14:06:33;19.90;99.90
20654;DHT22;21083;50.898;4.902;2023-07-31T14:09:01;19.90;99.90
20654;DHT22;21083;50.898;4.902;2023-07-31T14:11:30;19.70;99.90
20654;DHT22;21083;50.898;4.902;2023-07-31T14:13:58;19.70;99.90
20654;DHT22;21083;50.898;4.902;2023-07-31T14:16:25;19.80;99.90
20654;DHT22;21083;50.898;4.902;2023-07-31T14:18:52;19.60;99.90
20654;DHT22;21083;50.898;4.902;2023-07-31T14:21:19;19.50;99.90
20654;DHT22;21083;50.898;4.902;2023-07-31T14:23:46;19.50;99.90
20654;DHT22;21083;50.898;4.902;2023-07-31T14:26:14;19.50;99.90
20654;DHT22;21083;50.898;4.902;2023-07-31T14:28:42;19.40;99.90
20654;DHT22;21083;50.898;4.902;2023-07-31T14:31:09;19.40;99.90
20654;DHT22;21083;50.898;4.902;2023-07-31T14:33:36;19.20;99.90
20654;DHT22;21083;50.898;4.902;2023-07-31T14:36:03;19.20;99.90
20654;DHT22;21083;50.898;4.902;2023-07-31T14:38:30;19.10;99.90
20654;DHT22;21083;50.898;4.902;2023-07-31T14:40:58;19.10;99.90
20654;DHT22;21083;50.898;4.902;2023-07-31T14:43:26;19.20;99.90
20654;DHT22;21083;50.898;4.902;2023-07-31T14:45:53;19.20;99.90
20654;DHT22;21083;50.898;4.902;2023-07-31T14:48:23;19.20;99.90
20654;DHT22;21083;50.898;4.902;2023-07-31T14:50:50;19.10;99.90
20654;DHT22;21083;50.898;4.902;2023-07-31T14:53:17;19.20;99.90
20654;DHT22;21083;50.898;4.902;2023-07-31T14:55:44;19.10;99.90
20654;DHT22;21083;50.898;4.902;2023-07-31T14:58:11;19.10;99.90
20654;DHT22;21083;50.898;4.902;2023-07-31T15:00:40;19.10;99.90
20654;DHT22;21083;50.898;4.902;2023-07-31T15:03:07;19.10;99.90
20654;DHT22;21083;50.898;4.902;2023-07-31T15:05:34;19.20;99.90
20654;DHT22;21083;50.898;4.902;2023-07-31T15:08:01;19.20;99.90
20654;DHT22;21083;50.898;4.902;2023-07-31T15:10:28;19.10;99.90
20654;DHT22;21083;50.898;4.902;2023-07-31T15:12:55;19.10;99.90
20654;DHT22;21083;50.898;4.902;2023-07-31T15:15:22;19.00;99.90
20654;DHT22;21083;50.898;4.902;2023-07-31T15:17:51;19.10;99.90
20654;DHT22;21083;50.898;4.902;2023-07-31T15:20:18;19.10;99.90
20654;DHT22;21083;50.898;4.902;2023-07-31T15:22:45;19.10;99.90
20654;DHT22;21083;50.898;4.902;2023-07-31T15:25:12;19.00;99.90
20654;DHT22;21083;50.898;4.902;2023-07-31T15:27:40;19.10;99.90
20654;DHT22;21083;50.898;4.902;2023-07-31T15:30:08;19.20;99.90
20654;DHT22;21083;50.898;4.902;2023-07-31T15:32:37;19.10;99.90
20654;DHT22;21083;50.898;4.902;2023-07-31T15:35:06;19.10;99.90